Terminal Aerodrome Forecast
Issued by NWS

Home | Current Version | Previous Version | Text Only | Print | Product List | Glossary On
Versions: 1 2 3 4 5 6 7 8 9 10 11 12 13 14 15 16 17 18 19 20 21 22 23 24 25 26 27 28 29 30 31
000
FTUS41 KGYX 231720
TAFLEB
TAF
KLEB 231720Z 2318/2418 27011G20KT P6SM SCT050
     FM240000 VRB03KT P6SM SKC
      TEMPO 2409/2412 2SM BR BKN005
     FM241500 32005KT P6SM SCT050=

USA.gov is the U.S. government's official web portal to all federal, state and local government web resources and services.